createdAt,value
2018-09-09T00:01:34.971Z,98.90
2018-09-09T00:04:02.428Z,98.90
2018-09-09T00:06:29.706Z,98.90
2018-09-09T00:08:56.872Z,99.10
2018-09-09T00:11:24.370Z,99.50
2018-09-09T00:13:51.543Z,99.90
2018-09-09T00:16:18.900Z,99.90
2018-09-09T00:18:46.081Z,99.90
2018-09-09T00:21:13.294Z,99.90
2018-09-09T00:23:41.600Z,99.90
2018-09-09T00:26:08.792Z,99.90
2018-09-09T00:28:36.039Z,99.90
2018-09-09T00:31:03.210Z,99.90
2018-09-09T00:33:30.340Z,99.90
2018-09-09T00:35:57.846Z,99.90
2018-09-09T00:38:25.241Z,99.90
2018-09-09T00:40:52.545Z,99.90
2018-09-09T00:43:19.751Z,99.90
2018-09-09T00:45:46.917Z,99.90
2018-09-09T00:48:14.112Z,99.90
2018-09-09T00:50:46.951Z,99.90
2018-09-09T00:53:20.016Z,99.90
2018-09-09T00:55:47.172Z,99.90
2018-09-09T00:58:14.482Z,99.90
2018-09-09T01:00:47.451Z,99.90
2018-09-09T01:03:14.664Z,99.90
2018-09-09T01:05:41.816Z,99.90
2018-09-09T01:08:09.009Z,99.90
2018-09-09T01:10:36.155Z,99.90
2018-09-09T01:13:03.280Z,99.90
2018-09-09T01:15:30.544Z,99.90
2018-09-09T01:17:57.794Z,99.90
2018-09-09T01:20:25.034Z,99.90
2018-09-09T01:22:52.235Z,99.90
2018-09-09T01:25:19.689Z,99.90
2018-09-09T01:27:46.864Z,99.90
2018-09-09T01:30:14.085Z,99.90
2018-09-09T01:32:41.239Z,99.90
2018-09-09T01:35:08.378Z,99.90
2018-09-09T01:37:35.692Z,99.90
2018-09-09T01:40:03.022Z,99.90
2018-09-09T01:42:30.169Z,99.90
2018-09-09T01:44:57.349Z,99.90
2018-09-09T01:47:24.594Z,99.90
2018-09-09T01:49:51.757Z,99.90
2018-09-09T01:52:18.929Z,99.90
2018-09-09T01:54:46.036Z,99.90
2018-09-09T01:57:13.272Z,99.90
2018-09-09T01:59:40.652Z,99.90
2018-09-09T02:02:07.764Z,99.90
2018-09-09T02:04:35.046Z,99.90
2018-09-09T02:07:02.756Z,99.90
2018-09-09T02:09:29.887Z,99.90
2018-09-09T02:11:57.322Z,99.90
2018-09-09T02:14:24.537Z,99.90
2018-09-09T02:16:51.815Z,99.90
2018-09-09T02:19:19.117Z,99.90
2018-09-09T02:21:46.511Z,99.90
2018-09-09T02:24:13.704Z,99.90
2018-09-09T02:26:41.079Z,99.90
2018-09-09T02:29:08.360Z,99.90
2018-09-09T02:31:35.568Z,99.90
2018-09-09T02:34:02.920Z,99.90
2018-09-09T02:36:30.220Z,99.90
2018-09-09T02:38:57.490Z,99.90
2018-09-09T02:41:25.108Z,99.90
2018-09-09T02:43:52.494Z,99.90
2018-09-09T02:46:19.956Z,99.90
2018-09-09T02:48:47.176Z,99.90
2018-09-09T02:51:14.401Z,99.90
2018-09-09T02:53:41.837Z,99.90
2018-09-09T02:56:09.525Z,99.90
2018-09-09T02:58:36.845Z,99.90
2018-09-09T03:01:04.477Z,99.90
2018-09-09T03:03:31.761Z,99.90
2018-09-09T03:05:58.955Z,99.90
2018-09-09T03:08:26.161Z,99.90
2018-09-09T03:10:59.049Z,99.90
2018-09-09T03:13:26.259Z,99.90
2018-09-09T03:15:53.369Z,99.90
2018-09-09T03:18:20.526Z,99.90
2018-09-09T03:20:47.676Z,99.90
2018-09-09T03:23:14.793Z,99.90
2018-09-09T03:25:41.937Z,99.90
2018-09-09T03:28:09.089Z,99.90
2018-09-09T03:30:36.254Z,99.90
2018-09-09T03:33:03.501Z,99.90
2018-09-09T03:35:32.804Z,99.90
2018-09-09T03:37:59.992Z,99.90
2018-09-09T03:40:27.283Z,99.90
2018-09-09T03:42:54.455Z,99.90
2018-09-09T03:45:21.773Z,99.90
2018-09-09T03:47:48.955Z,99.90
2018-09-09T03:50:16.104Z,99.90
2018-09-09T03:52:43.307Z,99.90
2018-09-09T03:55:10.480Z,99.90
2018-09-09T03:57:37.711Z,99.90
2018-09-09T04:00:05.173Z,99.90
2018-09-09T04:02:32.383Z,99.90
2018-09-09T04:04:59.521Z,99.90
2018-09-09T04:07:26.771Z,99.90
2018-09-09T04:09:53.950Z,99.90
2018-09-09T04:12:21.070Z,99.90
2018-09-09T04:14:48.233Z,99.90
2018-09-09T04:17:15.466Z,99.90
2018-09-09T04:19:42.705Z,99.90
2018-09-09T04:22:09.906Z,99.90
2018-09-09T04:24:37.146Z,99.90
2018-09-09T04:27:04.436Z,99.90
2018-09-09T04:29:31.753Z,99.90
2018-09-09T04:31:58.925Z,99.90
2018-09-09T04:34:26.124Z,99.90
2018-09-09T04:36:53.301Z,99.90
2018-09-09T04:39:20.512Z,99.90
2018-09-09T04:41:47.732Z,99.90
2018-09-09T04:44:14.909Z,99.90
2018-09-09T04:46:42.131Z,99.90
2018-09-09T04:49:09.872Z,99.90
2018-09-09T04:51:37.069Z,99.90
2018-09-09T04:54:04.511Z,99.90
2018-09-09T04:56:31.784Z,99.90
2018-09-09T04:58:59.032Z,99.90
2018-09-09T05:01:26.304Z,99.90
2018-09-09T05:03:53.372Z,99.90
2018-09-09T05:06:20.748Z,99.90
2018-09-09T05:08:48.077Z,99.90
2018-09-09T05:11:15.285Z,99.90
2018-09-09T05:13:42.469Z,99.90
2018-09-09T05:16:09.755Z,99.90
2018-09-09T05:18:36.936Z,99.90
2018-09-09T05:21:04.048Z,99.90
2018-09-09T05:23:31.253Z,99.90
2018-09-09T05:25:58.411Z,99.90
2018-09-09T05:28:25.651Z,99.90
2018-09-09T05:30:52.842Z,99.90
2018-09-09T05:33:20.100Z,99.90
2018-09-09T05:35:47.321Z,99.90
2018-09-09T05:38:14.461Z,99.90
2018-09-09T05:40:41.649Z,99.90
2018-09-09T05:43:08.946Z,99.90
2018-09-09T05:45:36.279Z,99.90
2018-09-09T05:48:06.204Z,99.90
2018-09-09T05:50:33.610Z,99.90
2018-09-09T05:53:06.075Z,99.90
2018-09-09T05:55:33.218Z,99.90
2018-09-09T05:58:00.447Z,99.90
2018-09-09T06:00:27.632Z,99.90
2018-09-09T06:02:54.944Z,99.90
2018-09-09T06:05:22.305Z,99.90
2018-09-09T06:07:49.444Z,99.90
2018-09-09T06:10:16.622Z,99.90
2018-09-09T06:12:43.790Z,99.90
2018-09-09T06:15:12.691Z,99.90
2018-09-09T06:17:40.827Z,99.90
2018-09-09T06:20:10.269Z,99.90
2018-09-09T06:22:37.505Z,99.90
2018-09-09T06:25:04.668Z,99.90
2018-09-09T06:27:31.864Z,99.90
2018-09-09T06:29:59.089Z,99.90
2018-09-09T06:32:26.318Z,99.90
2018-09-09T06:34:53.516Z,99.90
2018-09-09T06:37:21.766Z,99.90
2018-09-09T06:39:49.977Z,99.90
2018-09-09T06:42:18.446Z,99.90
2018-09-09T06:44:46.327Z,99.90
2018-09-09T06:47:13.595Z,99.90
2018-09-09T06:49:40.872Z,99.90
2018-09-09T06:52:08.354Z,99.90
2018-09-09T06:54:35.496Z,99.90
2018-09-09T06:57:02.787Z,99.90
2018-09-09T06:59:37.875Z,99.90
2018-09-09T07:02:06.053Z,99.90
2018-09-09T07:04:33.973Z,99.90
2018-09-09T07:07:02.140Z,99.90
2018-09-09T07:09:29.399Z,99.90
2018-09-09T07:11:56.813Z,99.90
2018-09-09T07:14:24.160Z,99.90
2018-09-09T07:16:52.108Z,99.90
2018-09-09T07:19:19.746Z,99.90
2018-09-09T07:21:47.193Z,99.90
2018-09-09T07:24:16.651Z,99.90
2018-09-09T07:26:44.564Z,99.90
2018-09-09T07:29:12.812Z,99.90
2018-09-09T07:31:40.929Z,99.90
2018-09-09T07:34:08.489Z,99.90
2018-09-09T07:36:36.870Z,99.90
2018-09-09T07:39:05.532Z,99.90
2018-09-09T07:41:32.701Z,99.90
2018-09-09T07:44:00.609Z,99.90
2018-09-09T07:46:28.205Z,99.90
2018-09-09T07:48:56.212Z,99.90
2018-09-09T07:51:23.669Z,99.90
2018-09-09T07:53:51.046Z,99.90
2018-09-09T07:56:19.078Z,99.90
2018-09-09T07:58:46.256Z,99.90
2018-09-09T08:01:14.149Z,99.90
2018-09-09T08:03:42.867Z,99.90
2018-09-09T08:06:11.646Z,99.90
2018-09-09T08:08:38.908Z,99.90
2018-09-09T08:11:06.055Z,99.90
2018-09-09T08:13:33.361Z,99.90
2018-09-09T08:16:00.802Z,99.90
2018-09-09T08:18:28.153Z,99.90
2018-09-09T08:20:55.674Z,99.90
2018-09-09T08:23:22.976Z,99.90
2018-09-09T08:25:50.129Z,99.90
2018-09-09T08:28:17.302Z,99.90
2018-09-09T08:30:44.480Z,99.90
2018-09-09T08:33:11.762Z,99.90
2018-09-09T08:35:39.069Z,99.90
2018-09-09T08:38:06.366Z,99.90
2018-09-09T08:40:33.658Z,99.90
2018-09-09T08:43:00.907Z,99.90
2018-09-09T08:45:28.297Z,99.90
2018-09-09T08:47:55.948Z,99.90
2018-09-09T08:50:23.197Z,99.90
2018-09-09T08:52:50.362Z,99.90
2018-09-09T08:55:17.610Z,99.90
2018-09-09T08:57:44.950Z,99.90
2018-09-09T09:00:12.142Z,99.90
2018-09-09T09:02:43.477Z,99.90
2018-09-09T09:05:10.916Z,99.90
2018-09-09T09:07:38.974Z,99.90
2018-09-09T09:10:06.195Z,99.90
2018-09-09T09:12:37.207Z,99.50
2018-09-09T09:15:04.733Z,98.90
2018-09-09T09:17:32.657Z,99.10
2018-09-09T09:19:59.972Z,98.60
2018-09-09T09:22:27.147Z,98.70
2018-09-09T09:24:54.399Z,98.20
2018-09-09T09:27:21.980Z,97.80
2018-09-09T09:29:54.936Z,97.80
2018-09-09T09:32:22.579Z,97.60
2018-09-09T09:34:49.938Z,97.20
2018-09-09T09:37:17.704Z,96.30
2018-09-09T09:39:46.993Z,95.20
2018-09-09T09:42:15.224Z,95.70
2018-09-09T09:44:43.689Z,95.60
2018-09-09T09:47:11.044Z,96.10
2018-09-09T09:49:38.506Z,95.70
2018-09-09T09:52:06.648Z,95.60
2018-09-09T09:54:34.035Z,95.60
2018-09-09T09:57:01.699Z,95.50
2018-09-09T09:59:28.958Z,95.40
2018-09-09T10:01:56.269Z,95.50
2018-09-09T10:04:23.672Z,95.30
2018-09-09T10:06:51.116Z,95.00
2018-09-09T10:09:18.530Z,94.80
2018-09-09T10:11:45.934Z,94.90
2018-09-09T10:14:13.188Z,94.80
2018-09-09T10:16:40.396Z,94.40
2018-09-09T10:19:07.587Z,94.50
2018-09-09T10:21:35.108Z,94.50
2018-09-09T10:24:02.364Z,94.50
2018-09-09T10:26:29.917Z,94.60
2018-09-09T10:28:57.197Z,94.80
2018-09-09T10:31:24.397Z,94.80
2018-09-09T10:33:52.400Z,94.90
2018-09-09T10:36:19.589Z,94.80
2018-09-09T10:38:46.918Z,94.70
2018-09-09T10:41:14.291Z,94.80
2018-09-09T10:43:41.620Z,94.80
2018-09-09T10:46:09.810Z,95.00
2018-09-09T10:48:37.076Z,94.70
2018-09-09T10:51:08.423Z,94.90
2018-09-09T10:53:35.713Z,94.80
2018-09-09T10:56:03.053Z,94.30
2018-09-09T10:58:30.296Z,94.40
2018-09-09T11:00:57.611Z,94.20
2018-09-09T11:03:25.072Z,94.40
2018-09-09T11:05:53.006Z,94.20
2018-09-09T11:08:20.225Z,93.90
2018-09-09T11:10:47.465Z,93.50
2018-09-09T11:13:15.789Z,93.30
2018-09-09T11:15:43.171Z,93.10
2018-09-09T11:18:10.517Z,92.90
2018-09-09T11:20:37.878Z,92.90
2018-09-09T11:23:05.666Z,92.30
2018-09-09T11:25:33.653Z,92.10
2018-09-09T11:28:00.936Z,92.20
2018-09-09T11:30:28.851Z,91.80
2018-09-09T11:32:57.127Z,91.50
2018-09-09T11:35:24.541Z,91.20
2018-09-09T11:37:52.612Z,90.60
2018-09-09T11:40:19.852Z,90.80
2018-09-09T11:42:47.553Z,90.80
2018-09-09T11:45:15.112Z,90.40
2018-09-09T11:47:43.025Z,90.20
2018-09-09T11:50:10.317Z,90.10
2018-09-09T11:52:37.632Z,87.40
2018-09-09T11:55:04.940Z,88.60
2018-09-09T11:57:32.315Z,88.70
2018-09-09T11:59:59.568Z,87.00
2018-09-09T12:02:27.305Z,85.10
2018-09-09T12:04:54.542Z,84.30
2018-09-09T12:07:22.789Z,83.10
2018-09-09T12:09:50.017Z,82.80
2018-09-09T12:12:17.475Z,81.50
2018-09-09T12:14:44.780Z,80.90
2018-09-09T12:17:12.142Z,78.40
2018-09-09T12:19:39.580Z,78.50
2018-09-09T12:22:09.859Z,77.10
2018-09-09T12:24:37.196Z,75.80
2018-09-09T12:27:04.532Z,76.00
2018-09-09T12:29:31.901Z,74.90
2018-09-09T12:32:01.133Z,72.00
2018-09-09T12:34:28.607Z,69.20
2018-09-09T12:36:55.942Z,69.40
2018-09-09T12:39:23.408Z,68.20
2018-09-09T12:41:50.858Z,65.50
2018-09-09T12:44:24.021Z,64.40
2018-09-09T12:46:58.136Z,65.50
2018-09-09T12:49:25.562Z,64.30
2018-09-09T12:51:53.127Z,65.50
2018-09-09T12:54:20.751Z,66.00
2018-09-09T12:56:48.023Z,66.10
2018-09-09T12:59:15.300Z,64.30
2018-09-09T13:01:42.557Z,63.60
2018-09-09T13:04:10.009Z,62.90
2018-09-09T13:06:37.219Z,61.30
2018-09-09T13:09:06.473Z,62.60
2018-09-09T13:11:33.692Z,61.90
2018-09-09T13:14:00.944Z,61.20
2018-09-09T13:16:28.166Z,59.90
2018-09-09T13:18:55.451Z,59.60
2018-09-09T13:21:22.913Z,59.90
2018-09-09T13:23:50.281Z,58.50
2018-09-09T13:26:21.307Z,57.60
2018-09-09T13:28:48.611Z,58.30
2018-09-09T13:31:16.071Z,58.00
2018-09-09T13:33:43.498Z,58.20
2018-09-09T13:36:10.690Z,58.60
2018-09-09T13:38:38.100Z,58.20
2018-09-09T13:41:06.050Z,58.50
2018-09-09T13:43:33.371Z,58.30
2018-09-09T13:46:00.720Z,59.00
2018-09-09T13:48:28.203Z,58.30
2018-09-09T13:50:55.576Z,57.60
2018-09-09T13:53:22.989Z,56.70
2018-09-09T13:55:50.380Z,56.60
2018-09-09T13:58:17.739Z,57.30
2018-09-09T14:00:44.956Z,56.20
2018-09-09T14:03:12.187Z,56.60
2018-09-09T14:05:39.402Z,56.80
2018-09-09T14:08:06.668Z,57.50
2018-09-09T14:10:34.050Z,57.20
2018-09-09T14:13:01.301Z,56.40
2018-09-09T14:15:28.519Z,55.40
2018-09-09T14:17:55.833Z,54.50
2018-09-09T14:20:23.817Z,50.70
2018-09-09T14:22:51.913Z,49.70
2018-09-09T14:25:19.337Z,49.10
2018-09-09T14:27:46.758Z,48.80
2018-09-09T14:30:14.246Z,47.60
2018-09-09T14:32:42.081Z,47.90
2018-09-09T14:35:10.727Z,46.70
2018-09-09T14:37:38.140Z,46.90
2018-09-09T14:40:05.766Z,46.80
2018-09-09T14:42:33.032Z,47.20
2018-09-09T14:45:02.067Z,47.40
2018-09-09T14:47:29.432Z,45.90
2018-09-09T14:49:56.713Z,45.50
2018-09-09T14:52:24.096Z,44.70
2018-09-09T14:54:51.523Z,44.80
2018-09-09T14:57:18.818Z,45.20
2018-09-09T14:59:46.704Z,44.50
2018-09-09T15:02:14.293Z,44.50
2018-09-09T15:04:42.151Z,42.60
2018-09-09T15:07:11.468Z,42.40
2018-09-09T15:09:39.586Z,41.40
2018-09-09T15:12:07.178Z,41.70
2018-09-09T15:14:35.589Z,40.10
2018-09-09T15:17:03.497Z,40.30
2018-09-09T15:19:30.890Z,41.10
2018-09-09T15:21:58.239Z,40.00
2018-09-09T15:24:25.623Z,40.10
2018-09-09T15:26:52.941Z,40.50
2018-09-09T15:29:20.263Z,41.60
2018-09-09T15:31:47.799Z,42.40
2018-09-09T15:34:15.367Z,43.30
2018-09-09T15:36:43.200Z,43.90
2018-09-09T15:39:11.009Z,44.80
2018-09-09T15:41:38.405Z,45.00
2018-09-09T15:44:06.919Z,46.00
2018-09-09T15:46:35.326Z,45.10
2018-09-09T15:49:02.772Z,45.50
2018-09-09T15:51:30.946Z,46.10
2018-09-09T15:53:58.379Z,46.50
2018-09-09T15:56:25.735Z,47.00
2018-09-09T15:58:53.515Z,47.40
2018-09-09T16:01:21.448Z,47.90
2018-09-09T16:03:48.771Z,48.10
2018-09-09T16:06:16.353Z,47.90
2018-09-09T16:08:44.338Z,48.30
2018-09-09T16:11:11.776Z,49.00
2018-09-09T16:13:39.624Z,49.30
2018-09-09T16:16:07.010Z,49.60
2018-09-09T16:18:35.326Z,49.80
2018-09-09T16:21:02.620Z,50.40
2018-09-09T16:23:29.873Z,51.90
2018-09-09T16:25:57.951Z,50.50
2018-09-09T16:28:25.565Z,50.80
2018-09-09T16:30:52.969Z,51.40
2018-09-09T16:33:20.330Z,51.60
2018-09-09T16:35:48.234Z,51.00
2018-09-09T16:38:15.566Z,51.10
2018-09-09T16:40:42.986Z,51.80
2018-09-09T16:43:10.317Z,52.50
2018-09-09T16:45:37.754Z,52.50
2018-09-09T16:48:05.253Z,52.10
2018-09-09T16:50:32.467Z,52.10
2018-09-09T16:52:59.832Z,51.60
2018-09-09T16:55:27.282Z,52.10
2018-09-09T16:57:54.602Z,52.10
2018-09-09T17:00:22.021Z,52.20
2018-09-09T17:02:51.473Z,52.30
2018-09-09T17:05:18.983Z,52.70
2018-09-09T17:07:46.832Z,53.30
2018-09-09T17:10:15.466Z,53.00
2018-09-09T17:12:43.041Z,53.30
2018-09-09T17:15:10.864Z,54.20
2018-09-09T17:17:38.784Z,54.10
2018-09-09T17:20:07.193Z,54.20
2018-09-09T17:22:35.677Z,54.60
2018-09-09T17:25:03.408Z,54.60
2018-09-09T17:27:30.864Z,55.10
2018-09-09T17:29:58.290Z,55.50
2018-09-09T17:32:25.716Z,55.90
2018-09-09T17:34:52.995Z,55.50
2018-09-09T17:37:20.991Z,56.10
2018-09-09T17:39:48.468Z,56.40
2018-09-09T17:42:15.897Z,55.90
2018-09-09T17:44:43.329Z,56.10
2018-09-09T17:47:11.205Z,56.40
2018-09-09T17:49:38.571Z,56.60
2018-09-09T17:52:06.016Z,56.90
2018-09-09T17:54:33.609Z,57.90
2018-09-09T17:57:00.870Z,58.60
2018-09-09T17:59:28.772Z,59.40
2018-09-09T18:01:56.093Z,58.90
2018-09-09T18:04:23.527Z,59.00
2018-09-09T18:06:51.116Z,59.10
2018-09-09T18:09:18.600Z,59.90
2018-09-09T18:11:46.100Z,59.40
2018-09-09T18:14:14.241Z,59.00
2018-09-09T18:16:42.251Z,59.10
2018-09-09T18:19:09.697Z,59.50
2018-09-09T18:21:38.858Z,59.50
2018-09-09T18:24:06.089Z,59.80
2018-09-09T18:26:33.961Z,60.50
2018-09-09T18:29:01.312Z,59.80
2018-09-09T18:31:29.769Z,59.80
2018-09-09T18:33:57.215Z,59.80
2018-09-09T18:36:25.548Z,59.70
2018-09-09T18:38:53.431Z,60.10
2018-09-09T18:41:20.854Z,60.30
2018-09-09T18:43:50.417Z,61.10
2018-09-09T18:46:17.873Z,60.80
2018-09-09T18:48:45.501Z,61.60
2018-09-09T18:51:13.733Z,60.90
2018-09-09T18:53:41.214Z,62.50
2018-09-09T18:56:09.588Z,63.90
2018-09-09T18:58:37.234Z,65.10
2018-09-09T19:01:05.689Z,65.30
2018-09-09T19:03:33.398Z,65.40
2018-09-09T19:06:02.634Z,65.80
2018-09-09T19:08:30.444Z,65.20
2018-09-09T19:10:58.651Z,65.90
2018-09-09T19:13:26.299Z,66.90
2018-09-09T19:15:54.770Z,67.00
2018-09-09T19:18:22.433Z,67.50
2018-09-09T19:20:50.369Z,68.60
2018-09-09T19:23:20.303Z,69.50
2018-09-09T19:25:47.767Z,70.30
2018-09-09T19:28:16.393Z,71.00
2018-09-09T19:30:43.976Z,71.40
2018-09-09T19:33:11.458Z,72.40
2018-09-09T19:35:40.617Z,72.60
2018-09-09T19:38:12.084Z,73.20
2018-09-09T19:40:39.895Z,74.00
2018-09-09T19:43:11.026Z,74.70
2018-09-09T19:45:43.794Z,75.10
2018-09-09T19:48:18.539Z,75.60
2018-09-09T19:50:55.343Z,76.40
2018-09-09T19:53:23.668Z,78.90
2018-09-09T19:55:51.388Z,81.30
2018-09-09T19:58:18.762Z,83.50
2018-09-09T20:00:46.693Z,84.80
2018-09-09T20:03:14.034Z,85.60
2018-09-09T20:05:43.162Z,87.30
2018-09-09T20:11:25.413Z,88.60
2018-09-09T20:16:38.194Z,88.70
2018-09-09T20:19:05.782Z,89.40
2018-09-09T20:21:34.290Z,90.30
2018-09-09T20:24:01.648Z,90.50
2018-09-09T20:26:33.988Z,90.80
2018-09-09T20:29:01.723Z,90.80
2018-09-09T20:31:29.720Z,90.70
2018-09-09T20:33:57.047Z,90.80
2018-09-09T20:36:24.594Z,90.90
2018-09-09T20:38:52.022Z,90.90
2018-09-09T20:41:20.113Z,91.40
2018-09-09T20:43:47.689Z,92.20
2018-09-09T20:46:35.475Z,92.40
2018-09-09T20:50:21.837Z,92.90
2018-09-09T20:52:49.797Z,93.40
2018-09-09T20:55:17.365Z,93.80
2018-09-09T20:57:46.839Z,93.90
2018-09-09T21:00:14.379Z,94.00
2018-09-09T21:02:43.888Z,94.20
2018-09-09T21:05:11.503Z,94.30
2018-09-09T21:07:39.062Z,94.40
2018-09-09T21:10:06.514Z,94.40
2018-09-09T21:12:34.477Z,94.50
2018-09-09T21:15:05.561Z,94.60
2018-09-09T21:17:33.506Z,95.10
2018-09-09T21:20:01.095Z,95.40
2018-09-09T21:22:28.539Z,95.90
2018-09-09T21:24:55.737Z,96.80
2018-09-09T21:27:23.324Z,97.40
2018-09-09T21:29:50.756Z,98.10
2018-09-09T21:32:18.721Z,98.30
2018-09-09T21:34:46.032Z,98.50
2018-09-09T21:37:13.246Z,98.20
2018-09-09T21:39:40.929Z,98.10
2018-09-09T21:42:08.553Z,97.90
2018-09-09T21:44:35.976Z,97.10
2018-09-09T21:47:03.286Z,97.00
2018-09-09T21:49:30.673Z,97.10
2018-09-09T21:52:14.936Z,97.20
2018-09-09T21:54:47.618Z,97.20
2018-09-09T21:57:15.794Z,96.90
2018-09-09T21:59:43.029Z,97.10
2018-09-09T22:02:10.302Z,97.10
2018-09-09T22:04:38.538Z,97.10
2018-09-09T22:07:11.046Z,96.90
2018-09-09T22:09:38.952Z,96.70
2018-09-09T22:12:07.221Z,96.80
2018-09-09T22:14:34.450Z,96.90
2018-09-09T22:17:01.713Z,97.00
2018-09-09T22:19:28.910Z,97.20
2018-09-09T22:21:58.194Z,97.30
2018-09-09T22:24:25.475Z,97.30
2018-09-09T22:26:52.665Z,97.50
2018-09-09T22:29:19.846Z,97.60
2018-09-09T22:31:47.008Z,97.90
2018-09-09T22:34:14.538Z,98.20
2018-09-09T22:36:41.893Z,98.40
2018-09-09T22:39:10.032Z,98.30
2018-09-09T22:41:38.121Z,98.30
2018-09-09T22:44:07.606Z,98.40
2018-09-09T22:46:34.884Z,98.50
2018-09-09T22:49:02.068Z,98.70
2018-09-09T22:51:29.336Z,98.50
2018-09-09T22:53:56.610Z,98.50
2018-09-09T22:56:23.806Z,98.50
2018-09-09T22:58:50.989Z,98.60
2018-09-09T23:01:18.240Z,98.70
2018-09-09T23:03:45.546Z,98.70
2018-09-09T23:06:13.866Z,98.70
2018-09-09T23:08:41.294Z,98.80
2018-09-09T23:11:08.464Z,98.90
2018-09-09T23:13:35.808Z,99.10
2018-09-09T23:16:03.027Z,99.10
2018-09-09T23:18:30.282Z,99.20
2018-09-09T23:20:57.481Z,99.30
2018-09-09T23:23:24.724Z,99.50
2018-09-09T23:25:51.904Z,99.80
2018-09-09T23:28:19.137Z,99.90
2018-09-09T23:30:46.339Z,99.90
2018-09-09T23:33:13.584Z,99.90
2018-09-09T23:35:40.773Z,99.90
2018-09-09T23:38:08.030Z,99.90
2018-09-09T23:40:35.280Z,99.90
2018-09-09T23:43:02.635Z,99.90
2018-09-09T23:46:11.281Z,99.90
2018-09-09T23:48:38.514Z,99.90
2018-09-09T23:51:05.732Z,99.90
2018-09-09T23:53:33.032Z,99.90
2018-09-09T23:56:00.180Z,99.90
2018-09-09T23:58:27.406Z,99.90
